createdAt,value
2019-05-20T00:00:51.709Z,100016.78
2019-05-20T00:05:15.969Z,100008.11
2019-05-20T00:09:40.131Z,100006.05
2019-05-20T00:14:04.364Z,100001.91
2019-05-20T00:18:29.375Z,100002.47
2019-05-20T00:22:53.243Z,100006.51
2019-05-20T00:27:17.751Z,100005.41
2019-05-20T00:31:41.629Z,100002.33
2019-05-20T00:36:05.964Z,100019.81
2019-05-20T00:40:30.092Z,100016.77
2019-05-20T00:44:54.207Z,100009.69
2019-05-20T00:49:18.312Z,100012.08
2019-05-20T00:53:42.670Z,100022.30
2019-05-20T00:58:06.781Z,100021.61
2019-05-20T01:02:30.651Z,100020.44
2019-05-20T01:06:55.959Z,100027.13
2019-05-20T01:11:20.080Z,100027.13
2019-05-20T01:15:44.182Z,100033.13
2019-05-20T01:20:10.556Z,100036.12
2019-05-20T01:24:34.415Z,100030.87
2019-05-20T01:28:58.600Z,100027.34
2019-05-20T01:33:22.699Z,100027.34
2019-05-20T01:37:46.615Z,100023.48
2019-05-20T01:42:10.869Z,100024.43
2019-05-20T01:46:35.209Z,100025.13
2019-05-20T01:50:59.017Z,100019.33
2019-05-20T01:55:22.822Z,100020.24
2019-05-20T01:59:46.742Z,100026.98
2019-05-20T02:04:10.937Z,100029.35
2019-05-20T02:08:34.811Z,100030.80
2019-05-20T02:12:58.609Z,100027.34
2019-05-20T02:17:22.759Z,100029.97
2019-05-20T02:21:46.575Z,100031.90
2019-05-20T02:26:10.551Z,100035.97
2019-05-20T02:30:34.547Z,100036.31
2019-05-20T02:34:59.244Z,100041.52
2019-05-20T02:39:26.507Z,100037.28
2019-05-20T02:43:48.728Z,100044.08
2019-05-20T02:48:12.717Z,100041.77
2019-05-20T02:52:36.908Z,100045.77
2019-05-20T02:57:00.934Z,100039.77
2019-05-20T03:01:24.947Z,100025.94
2019-05-20T03:05:49.097Z,100034.45
2019-05-20T03:10:13.763Z,100041.19
2019-05-20T03:14:37.719Z,100041.19
2019-05-20T03:19:01.895Z,100044.44
2019-05-20T03:23:25.836Z,100051.33
2019-05-20T03:27:50.894Z,100059.73
2019-05-20T03:32:14.891Z,100054.71
2019-05-20T03:36:39.081Z,100062.14
2019-05-20T03:41:03.567Z,100053.64
2019-05-20T03:45:28.890Z,100060.27
2019-05-20T03:49:52.775Z,100060.38
2019-05-20T03:54:16.594Z,100065.45
2019-05-20T03:58:40.614Z,100059.69
2019-05-20T04:03:06.023Z,100060.52
2019-05-20T04:07:29.858Z,100066.71
2019-05-20T04:11:53.867Z,100072.48
2019-05-20T04:16:18.009Z,100067.30
2019-05-20T04:20:42.154Z,100072.24
2019-05-20T04:25:07.204Z,100080.74
2019-05-20T04:29:32.056Z,100084.83
2019-05-20T04:33:55.931Z,100083.60
2019-05-20T04:38:19.810Z,100081.13
2019-05-20T04:42:44.592Z,100083.81
2019-05-20T04:47:09.509Z,100085.02
2019-05-20T04:51:34.089Z,100073.92
2019-05-20T04:55:57.957Z,100073.72
2019-05-20T05:00:57.033Z,100073.72
2019-05-20T05:05:36.550Z,100075.98
2019-05-20T05:09:48.535Z,100080.73
2019-05-20T05:14:12.818Z,100085.27
2019-05-20T05:18:36.987Z,100085.36
2019-05-20T05:23:02.477Z,100085.36
2019-05-20T05:27:27.777Z,100090.50
2019-05-20T05:31:52.870Z,100088.29
2019-05-20T05:36:19.520Z,100080.61
2019-05-20T05:40:44.007Z,100078.67
2019-05-20T05:45:09.042Z,100080.36
2019-05-20T05:49:33.753Z,100081.53
2019-05-20T05:53:58.801Z,100079.95
2019-05-20T05:58:22.876Z,100083.75
2019-05-20T06:02:48.544Z,100082.31
2019-05-20T06:07:13.657Z,100090.05
2019-05-20T06:11:38.089Z,100089.16
2019-05-20T06:16:04.634Z,100079.71
2019-05-20T06:25:02.556Z,100079.80
2019-05-20T06:29:26.964Z,100089.90
2019-05-20T06:33:52.583Z,100095.31
2019-05-20T06:38:42.325Z,100099.38
2019-05-20T06:43:07.660Z,100103.95
2019-05-20T06:47:31.983Z,100105.52
2019-05-20T06:51:55.880Z,100106.95
2019-05-20T06:56:20.186Z,100112.02
2019-05-20T07:00:45.718Z,100108.32
2019-05-20T07:05:11.410Z,100111.00
2019-05-20T07:09:35.506Z,100113.85
2019-05-20T07:14:00.143Z,100121.90
2019-05-20T07:18:27.521Z,100129.52
2019-05-20T07:22:55.790Z,100128.73
2019-05-20T07:27:18.133Z,100147.36
2019-05-20T07:31:44.473Z,100147.59
2019-05-20T07:36:10.079Z,100147.59
2019-05-20T07:40:34.543Z,100155.96
2019-05-20T07:45:01.251Z,100156.89
2019-05-20T07:49:25.504Z,100146.21
2019-05-20T07:53:50.971Z,100151.25
2019-05-20T07:58:18.039Z,100152.34
2019-05-20T08:02:42.177Z,100154.38
2019-05-20T08:07:26.002Z,100155.15
2019-05-20T08:11:32.490Z,100155.62
2019-05-20T08:15:57.581Z,100162.33
2019-05-20T08:20:22.222Z,100160.73
2019-05-20T08:24:46.122Z,100168.20
2019-05-20T08:29:10.602Z,100164.25
2019-05-20T08:33:34.655Z,100160.89
2019-05-20T08:37:58.807Z,100164.50
2019-05-20T08:42:23.216Z,100174.03
2019-05-20T08:46:47.454Z,100173.08
2019-05-20T08:51:11.595Z,100171.34
2019-05-20T08:55:35.474Z,100168.23
2019-05-20T08:59:59.360Z,100169.06
2019-05-20T09:04:23.635Z,100170.86
2019-05-20T09:08:47.725Z,100176.58
2019-05-20T09:13:11.919Z,100173.18
2019-05-20T09:17:38.818Z,100179.95
2019-05-20T09:22:02.547Z,100182.63
2019-05-20T09:26:26.661Z,100191.17
2019-05-20T09:30:51.194Z,100187.15
2019-05-20T09:35:15.335Z,100191.08
2019-05-20T09:39:39.555Z,100193.84
2019-05-20T09:44:06.386Z,100193.84
2019-05-20T09:48:30.397Z,100191.09
2019-05-20T09:52:54.586Z,100193.03
2019-05-20T09:57:18.886Z,100193.47
2019-05-20T10:01:44.251Z,100198.79
2019-05-20T10:06:08.641Z,100209.13
2019-05-20T10:10:32.589Z,100206.15
2019-05-20T10:14:57.864Z,100206.86
2019-05-20T10:19:22.452Z,100199.33
2019-05-20T10:23:50.404Z,100204.97
2019-05-20T10:28:14.562Z,100209.30
2019-05-20T10:37:11.437Z,100197.34
2019-05-20T10:41:35.759Z,100200.83
2019-05-20T10:46:00.425Z,100198.84
2019-05-20T10:50:24.847Z,100201.81
2019-05-20T10:54:49.744Z,100194.58
2019-05-20T10:59:14.726Z,100198.25
2019-05-20T11:03:38.596Z,100195.17
2019-05-20T11:08:03.031Z,100210.54
2019-05-20T11:12:27.141Z,100226.38
2019-05-20T11:16:51.458Z,100204.59
2019-05-20T11:21:15.732Z,100204.59
2019-05-20T11:25:39.845Z,100203.94
2019-05-20T11:30:07.328Z,100203.94
2019-05-20T11:34:32.021Z,100213.75
2019-05-20T11:38:56.095Z,100206.70
2019-05-20T11:43:20.302Z,100201.88
2019-05-20T11:47:44.303Z,100199.56
2019-05-20T11:52:08.515Z,100198.16
2019-05-20T11:56:32.544Z,100202.85
2019-05-20T12:00:56.677Z,100202.41
2019-05-20T12:05:21.060Z,100205.30
2019-05-20T12:09:51.180Z,100205.30
2019-05-20T12:14:16.821Z,100197.84
2019-05-20T12:18:44.865Z,100211.41
2019-05-20T12:23:07.257Z,100195.88
2019-05-20T12:27:32.681Z,100185.42
2019-05-20T12:31:57.804Z,100194.23
2019-05-20T12:36:22.281Z,100188.52
2019-05-20T12:40:46.471Z,100191.11
2019-05-20T12:45:11.014Z,100195.17
2019-05-20T12:49:35.610Z,100185.42
2019-05-20T12:54:00.367Z,100189.91
2019-05-20T12:58:24.864Z,100183.69
2019-05-20T13:02:49.302Z,100187.31
2019-05-20T13:07:14.293Z,100183.08
2019-05-20T13:11:38.831Z,100177.19
2019-05-20T13:16:02.914Z,100187.62
2019-05-20T13:20:28.201Z,100176.02
2019-05-20T13:24:52.091Z,100176.02
2019-05-20T13:29:16.052Z,100186.02
2019-05-20T13:38:03.129Z,100187.24
2019-05-20T13:42:27.027Z,100187.24
2019-05-20T13:46:50.903Z,100180.37
2019-05-20T13:51:15.112Z,100179.70
2019-05-20T13:55:39.305Z,100170.34
2019-05-20T14:00:03.797Z,100170.34
2019-05-20T14:04:27.803Z,100173.58
2019-05-20T14:08:51.917Z,100176.60
2019-05-20T14:13:16.066Z,100172.23
2019-05-20T14:17:41.203Z,100182.61
2019-05-20T14:22:06.919Z,100182.61
2019-05-20T14:26:30.811Z,100181.82
2019-05-20T14:30:54.968Z,100186.95
2019-05-20T14:35:19.032Z,100179.40
2019-05-20T14:39:43.419Z,100172.48
2019-05-20T14:44:07.881Z,100172.92
2019-05-20T14:48:31.833Z,100170.38
2019-05-20T14:52:57.032Z,100172.67
2019-05-20T14:57:21.485Z,100170.97
2019-05-20T15:01:45.843Z,100176.33
2019-05-20T15:06:11.299Z,100166.28
2019-05-20T15:10:35.586Z,100161.12
2019-05-20T15:14:59.713Z,100158.06
2019-05-20T15:19:23.886Z,100152.87
2019-05-20T15:23:48.691Z,100152.87
2019-05-20T15:28:13.192Z,100166.09
2019-05-20T15:32:37.082Z,100168.17
2019-05-20T15:37:01.331Z,100162.70
2019-05-20T15:41:25.511Z,100164.81
2019-05-20T15:45:49.598Z,100170.86
2019-05-20T15:50:15.550Z,100171.25
2019-05-20T15:54:39.813Z,100178.73
2019-05-20T15:59:04.855Z,100178.73
2019-05-20T16:03:29.161Z,100180.88
2019-05-20T16:07:53.519Z,100165.56
2019-05-20T16:12:17.966Z,100164.53
2019-05-20T16:16:42.089Z,100165.63
2019-05-20T16:21:06.367Z,100168.92
2019-05-20T16:25:30.774Z,100178.79
2019-05-20T16:30:06.034Z,100178.79
2019-05-20T16:34:21.798Z,100184.40
2019-05-20T16:38:46.474Z,100191.99
2019-05-20T16:43:10.936Z,100188.46
2019-05-20T16:47:35.418Z,100190.50
2019-05-20T16:51:59.639Z,100180.98
2019-05-20T16:56:24.498Z,100206.81
2019-05-20T17:00:48.934Z,100207.81
2019-05-20T17:05:16.159Z,100207.81
2019-05-20T17:09:40.170Z,100205.85
2019-05-20T17:14:04.379Z,100218.44
2019-05-20T17:18:28.806Z,100215.10
2019-05-20T17:22:53.553Z,100219.07
2019-05-20T17:27:18.649Z,100228.32
2019-05-20T17:31:42.609Z,100233.78
2019-05-20T17:36:06.807Z,100228.00
2019-05-20T17:40:30.978Z,100231.44
2019-05-20T17:44:55.882Z,100231.44
2019-05-20T17:49:20.389Z,100244.69
2019-05-20T17:53:44.552Z,100246.50
2019-05-20T17:58:09.569Z,100246.47
2019-05-20T18:02:33.889Z,100251.07
2019-05-20T18:11:29.720Z,100251.03
2019-05-20T18:15:53.580Z,100261.25
2019-05-20T18:20:20.037Z,100261.37
2019-05-20T18:24:45.979Z,100258.61
2019-05-20T18:29:10.346Z,100261.55
2019-05-20T18:33:34.824Z,100260.70
2019-05-20T18:37:59.194Z,100260.22
2019-05-20T18:42:26.651Z,100250.63
2019-05-20T18:46:52.810Z,100250.66
2019-05-20T18:51:17.727Z,100258.89
2019-05-20T18:55:42.885Z,100261.88
